createdAt,value
2019-02-16T00:02:05.350Z,4.37
2019-02-16T00:04:11.651Z,4.40
2019-02-16T00:06:17.866Z,4.34
2019-02-16T00:08:24.095Z,4.27
2019-02-16T00:10:30.536Z,4.29
2019-02-16T00:12:37.074Z,4.29
2019-02-16T00:14:43.440Z,4.28
2019-02-16T00:16:49.708Z,4.26
2019-02-16T00:18:55.996Z,4.24
2019-02-16T00:21:04.284Z,4.28
2019-02-16T00:23:10.259Z,4.29
2019-02-16T00:25:16.907Z,4.28
2019-02-16T00:27:23.267Z,4.27
2019-02-16T00:29:29.558Z,4.29
2019-02-16T00:31:35.900Z,4.25
2019-02-16T00:33:42.268Z,4.25
2019-02-16T00:35:48.570Z,4.29
2019-02-16T00:37:54.906Z,4.24
2019-02-16T00:40:01.204Z,4.24
2019-02-16T00:42:07.577Z,4.23
2019-02-16T00:44:13.901Z,4.21
2019-02-16T00:46:20.425Z,4.19
2019-02-16T00:48:26.721Z,4.17
2019-02-16T00:50:33.046Z,4.14
2019-02-16T00:52:39.266Z,4.09
2019-02-16T00:54:45.749Z,4.04
2019-02-16T00:56:51.989Z,4.05
2019-02-16T00:58:58.359Z,4.08
2019-02-16T01:01:04.650Z,4.12
2019-02-16T01:03:10.968Z,4.13
2019-02-16T01:05:17.341Z,4.14
2019-02-16T01:07:23.705Z,4.12
2019-02-16T01:09:30.087Z,4.12
2019-02-16T01:11:36.395Z,4.14
2019-02-16T01:13:42.634Z,4.20
2019-02-16T01:15:48.901Z,4.19
2019-02-16T01:17:55.240Z,4.14
2019-02-16T01:20:01.421Z,4.12
2019-02-16T01:22:07.684Z,4.13
2019-02-16T01:24:13.987Z,4.14
2019-02-16T01:26:20.156Z,4.10
2019-02-16T01:28:26.427Z,4.10
2019-02-16T01:30:32.678Z,4.13
2019-02-16T01:32:38.987Z,4.12
2019-02-16T01:34:45.167Z,4.11
2019-02-16T01:36:51.405Z,4.09
2019-02-16T01:38:57.640Z,4.12
2019-02-16T01:41:03.915Z,4.13
2019-02-16T01:43:10.141Z,4.12
2019-02-16T01:45:16.511Z,4.14
2019-02-16T01:47:22.742Z,4.16
2019-02-16T01:49:28.974Z,4.12
2019-02-16T01:51:35.139Z,4.10
2019-02-16T01:53:41.322Z,4.08
2019-02-16T01:55:47.652Z,4.06
2019-02-16T01:57:54.017Z,4.09
2019-02-16T02:00:00.339Z,4.04
2019-02-16T02:02:06.584Z,4.06
2019-02-16T02:04:12.832Z,4.07
2019-02-16T02:06:19.090Z,4.06
2019-02-16T02:08:25.532Z,4.04
2019-02-16T02:10:31.911Z,4.02
2019-02-16T02:12:38.226Z,4.03
2019-02-16T02:14:44.545Z,3.98
2019-02-16T02:16:50.854Z,3.91
2019-02-16T02:18:57.055Z,3.85
2019-02-16T02:21:03.365Z,3.84
2019-02-16T02:23:09.543Z,3.83
2019-02-16T02:25:15.739Z,3.77
2019-02-16T02:27:22.041Z,3.81
2019-02-16T02:29:28.215Z,3.80
2019-02-16T02:31:34.403Z,3.81
2019-02-16T02:33:40.620Z,3.78
2019-02-16T02:35:46.856Z,3.78
2019-02-16T02:37:54.153Z,3.79
2019-02-16T02:40:00.420Z,3.76
2019-02-16T02:42:06.622Z,3.70
2019-02-16T02:44:12.867Z,3.72
2019-02-16T02:46:19.039Z,3.71
2019-02-16T02:48:25.255Z,3.65
2019-02-16T02:50:31.517Z,3.67
2019-02-16T02:52:38.703Z,3.73
2019-02-16T02:54:45.196Z,3.72
2019-02-16T02:56:52.438Z,3.67
2019-02-16T02:58:58.599Z,3.70
2019-02-16T03:01:04.755Z,3.71
2019-02-16T03:03:12.000Z,3.69
2019-02-16T03:05:18.230Z,3.69
2019-02-16T03:07:24.520Z,3.67
2019-02-16T03:09:30.862Z,3.64
2019-02-16T03:11:37.151Z,3.66
2019-02-16T03:13:43.315Z,3.71
2019-02-16T03:15:49.493Z,3.69
2019-02-16T03:17:55.683Z,3.68
2019-02-16T03:20:02.032Z,3.68
2019-02-16T03:22:08.565Z,3.70
2019-02-16T03:24:14.904Z,3.72
2019-02-16T03:26:31.825Z,3.73
2019-02-16T03:28:57.487Z,3.73
2019-02-16T03:31:36.763Z,3.76
2019-02-16T03:33:59.715Z,3.75
2019-02-16T03:36:31.993Z,3.69
2019-02-16T03:38:54.874Z,3.63
2019-02-16T03:41:01.200Z,3.63
2019-02-16T03:43:07.371Z,3.65
2019-02-16T03:45:13.536Z,3.68
2019-02-16T03:47:19.855Z,3.67
2019-02-16T03:49:26.096Z,3.67
2019-02-16T03:51:32.272Z,3.69
2019-02-16T03:53:38.456Z,3.71
2019-02-16T03:55:44.745Z,3.73
2019-02-16T03:57:50.913Z,3.73
2019-02-16T03:59:57.187Z,3.73
2019-02-16T04:02:03.489Z,3.69
2019-02-16T04:04:09.878Z,3.67
2019-02-16T04:06:16.056Z,3.67
2019-02-16T04:08:22.291Z,3.62
2019-02-16T04:10:28.454Z,3.59
2019-02-16T04:12:34.724Z,3.49
2019-02-16T04:14:41.055Z,3.46
2019-02-16T04:16:47.220Z,3.48
2019-02-16T04:18:53.549Z,3.48
2019-02-16T04:20:59.843Z,3.47
2019-02-16T04:23:06.072Z,3.47
2019-02-16T04:25:12.279Z,3.46
2019-02-16T04:27:18.496Z,3.48
2019-02-16T04:29:24.749Z,3.51
2019-02-16T04:31:31.084Z,3.48
2019-02-16T04:33:37.343Z,3.50
2019-02-16T04:35:43.501Z,3.52
2019-02-16T04:37:49.899Z,3.54
2019-02-16T04:39:56.100Z,3.52
2019-02-16T04:42:02.389Z,3.53
2019-02-16T04:44:08.771Z,3.45
2019-02-16T04:46:14.935Z,3.45
2019-02-16T04:48:21.178Z,3.41
2019-02-16T04:50:27.500Z,3.38
2019-02-16T04:52:35.066Z,3.37
2019-02-16T04:54:41.583Z,3.37
2019-02-16T04:56:48.217Z,3.29
2019-02-16T04:58:54.532Z,3.28
2019-02-16T05:01:00.905Z,3.29
2019-02-16T05:03:07.248Z,3.27
2019-02-16T05:05:13.618Z,3.27
2019-02-16T05:07:19.833Z,3.23
2019-02-16T05:09:26.095Z,3.22
2019-02-16T05:11:32.319Z,3.24
2019-02-16T05:13:38.478Z,3.26
2019-02-16T05:15:44.738Z,3.26
2019-02-16T05:17:50.897Z,3.27
2019-02-16T05:19:57.129Z,3.25
2019-02-16T05:22:03.586Z,3.25
2019-02-16T05:24:09.813Z,3.23
2019-02-16T05:26:15.971Z,3.17
2019-02-16T05:28:22.288Z,3.14
2019-02-16T05:30:28.555Z,3.13
2019-02-16T05:32:34.766Z,3.14
2019-02-16T05:34:40.980Z,3.14
2019-02-16T05:36:47.201Z,3.13
2019-02-16T05:38:54.507Z,3.09
2019-02-16T05:41:00.696Z,3.09
2019-02-16T05:43:06.923Z,3.03
2019-02-16T05:45:13.144Z,3.01
2019-02-16T05:47:19.399Z,3.03
2019-02-16T05:49:25.738Z,2.99
2019-02-16T05:51:32.071Z,3.01
2019-02-16T05:53:38.390Z,3.02
2019-02-16T05:55:44.630Z,3.01
2019-02-16T05:57:50.945Z,2.95
2019-02-16T05:59:57.241Z,2.95
2019-02-16T06:02:03.673Z,2.92
2019-02-16T06:04:09.895Z,2.94
2019-02-16T06:06:16.135Z,2.91
2019-02-16T06:08:22.304Z,2.90
2019-02-16T06:10:28.591Z,2.94
2019-02-16T06:12:34.833Z,2.97
2019-02-16T06:14:41.199Z,3.01
2019-02-16T06:16:47.434Z,3.01
2019-02-16T06:18:53.774Z,3.03
2019-02-16T06:21:01.880Z,2.98
2019-02-16T06:23:08.002Z,2.95
2019-02-16T06:25:14.385Z,2.98
2019-02-16T06:27:20.610Z,2.97
2019-02-16T06:29:26.988Z,2.98
2019-02-16T06:31:33.302Z,3.01
2019-02-16T06:33:39.550Z,3.06
2019-02-16T06:35:47.483Z,3.06
2019-02-16T06:37:53.734Z,3.09
2019-02-16T06:40:00.028Z,3.11
2019-02-16T06:42:06.193Z,3.13
2019-02-16T06:44:12.583Z,3.14
2019-02-16T06:46:18.738Z,3.16
2019-02-16T06:48:24.966Z,3.14
2019-02-16T06:50:36.870Z,3.16
2019-02-16T06:52:39.136Z,3.15
2019-02-16T06:54:45.385Z,3.19
2019-02-16T06:57:05.331Z,3.13
2019-02-16T06:59:11.576Z,3.08
2019-02-16T07:01:18.064Z,3.02
2019-02-16T07:03:24.258Z,3.01
2019-02-16T07:05:30.477Z,3.04
2019-02-16T07:07:36.812Z,3.05
2019-02-16T07:09:43.135Z,3.01
2019-02-16T07:11:49.357Z,3.05
2019-02-16T07:13:55.513Z,3.05
2019-02-16T07:16:19.461Z,3.00
2019-02-16T07:18:27.270Z,3.01
2019-02-16T07:20:33.423Z,3.01
2019-02-16T07:22:39.706Z,3.02
2019-02-16T07:24:45.851Z,3.07
2019-02-16T07:26:52.144Z,3.10
2019-02-16T07:28:58.342Z,3.13
2019-02-16T07:31:04.497Z,3.21
2019-02-16T07:33:10.731Z,3.27
2019-02-16T07:35:16.935Z,3.26
2019-02-16T07:37:23.237Z,3.30
2019-02-16T07:39:29.400Z,3.29
2019-02-16T07:41:35.652Z,3.23
2019-02-16T07:43:46.179Z,3.21
2019-02-16T07:45:54.120Z,3.23
2019-02-16T07:48:01.950Z,3.22
2019-02-16T07:50:12.533Z,3.14
2019-02-16T07:52:23.674Z,2.90
2019-02-16T07:54:43.515Z,2.86
2019-02-16T07:56:51.350Z,2.80
2019-02-16T07:58:59.221Z,2.82
2019-02-16T08:01:07.118Z,2.84
2019-02-16T08:03:14.978Z,2.85
2019-02-16T08:05:22.899Z,2.88
2019-02-16T08:07:30.995Z,2.93
2019-02-16T08:09:55.140Z,3.02
2019-02-16T08:12:05.612Z,3.02
2019-02-16T08:14:29.623Z,3.08
2019-02-16T08:16:41.529Z,3.09
2019-02-16T08:19:05.685Z,3.20
2019-02-16T08:21:13.584Z,3.26
2019-02-16T08:23:40.416Z,3.36
2019-02-16T08:25:47.278Z,3.44
2019-02-16T08:27:55.085Z,3.48
2019-02-16T08:30:03.108Z,3.52
2019-02-16T08:32:19.820Z,3.53
2019-02-16T08:34:28.831Z,3.52
2019-02-16T08:36:39.542Z,3.57
2019-02-16T08:38:56.127Z,3.58
2019-02-16T08:41:09.743Z,3.49
2019-02-16T08:43:26.671Z,3.45
2019-02-16T08:45:35.370Z,3.45
2019-02-16T08:47:43.337Z,3.44
2019-02-16T08:50:03.502Z,3.46
2019-02-16T08:52:21.459Z,3.50
2019-02-16T08:54:27.402Z,3.52
2019-02-16T08:56:44.213Z,3.54
2019-02-16T08:58:57.649Z,3.57
2019-02-16T09:01:21.718Z,3.55
2019-02-16T09:03:27.722Z,3.52
2019-02-16T09:05:41.519Z,3.54
2019-02-16T09:07:49.361Z,3.65
2019-02-16T09:10:09.414Z,3.69
2019-02-16T09:12:33.658Z,3.70
2019-02-16T09:14:50.467Z,3.52
2019-02-16T09:17:01.062Z,3.57
2019-02-16T09:19:20.691Z,3.61
2019-02-16T09:21:43.772Z,3.63
2019-02-16T09:23:59.138Z,3.71
2019-02-16T09:26:19.080Z,3.71
2019-02-16T09:28:35.694Z,3.67
2019-02-16T09:30:45.634Z,3.59
2019-02-16T09:32:53.554Z,3.56
2019-02-16T09:35:07.469Z,3.66
2019-02-16T09:37:21.248Z,3.65
2019-02-16T09:39:29.055Z,3.66
2019-02-16T09:41:36.864Z,3.65
2019-02-16T09:44:02.852Z,3.54
2019-02-16T09:46:23.602Z,3.54
2019-02-16T09:48:40.526Z,3.55
2019-02-16T09:50:51.248Z,3.54
2019-02-16T09:53:07.669Z,3.66
2019-02-16T09:55:13.634Z,3.67
2019-02-16T09:57:25.428Z,3.75
2019-02-16T09:59:33.293Z,3.79
2019-02-16T10:01:43.654Z,3.84
2019-02-16T10:03:51.522Z,3.81
2019-02-16T10:05:59.386Z,3.81
2019-02-16T10:08:07.326Z,3.89
2019-02-16T10:10:20.625Z,4.02
2019-02-16T10:12:44.647Z,4.01
2019-02-16T10:14:55.516Z,4.03
2019-02-16T10:17:10.076Z,4.00
2019-02-16T10:19:31.364Z,4.08
2019-02-16T10:21:45.162Z,4.10
2019-02-16T10:23:56.200Z,4.01
2019-02-16T10:26:02.192Z,3.93
2019-02-16T10:28:23.158Z,4.03
2019-02-16T10:30:40.071Z,4.08
2019-02-16T10:33:04.139Z,4.18
2019-02-16T10:35:14.800Z,4.32
2019-02-16T10:37:28.811Z,4.34
2019-02-16T10:39:36.681Z,4.35
2019-02-16T10:41:45.269Z,4.38
2019-02-16T10:43:54.400Z,4.39
2019-02-16T10:46:16.543Z,4.45
2019-02-16T10:48:24.228Z,4.36
2019-02-16T10:50:32.120Z,4.29
2019-02-16T10:52:42.409Z,4.37
2019-02-16T10:54:50.215Z,4.43
2019-02-16T10:57:02.226Z,4.48
2019-02-16T10:59:10.159Z,4.58
2019-02-16T11:01:20.824Z,4.68
2019-02-16T11:03:31.419Z,4.68
2019-02-16T11:05:42.333Z,4.70
2019-02-16T11:07:53.108Z,4.75
2019-02-16T11:10:01.028Z,4.74
2019-02-16T11:12:08.817Z,4.74
2019-02-16T11:14:33.038Z,4.81
2019-02-16T11:16:56.296Z,4.86
2019-02-16T11:19:14.630Z,4.91
2019-02-16T11:21:25.404Z,4.84
2019-02-16T11:23:45.561Z,4.82
2019-02-16T11:25:59.039Z,4.82
2019-02-16T11:28:19.216Z,4.79
2019-02-16T11:30:34.015Z,4.82
2019-02-16T11:32:47.455Z,4.90
2019-02-16T11:34:58.222Z,4.95
2019-02-16T11:37:14.971Z,5.02
2019-02-16T11:39:25.560Z,5.04
2019-02-16T11:41:34.607Z,5.12
2019-02-16T11:43:41.834Z,5.16
2019-02-16T11:45:55.286Z,5.10
2019-02-16T11:48:12.799Z,4.98
2019-02-16T11:50:32.541Z,4.97
2019-02-16T11:52:43.291Z,5.05
2019-02-16T11:55:06.477Z,5.15
2019-02-16T11:57:29.388Z,5.20
2019-02-16T11:59:43.313Z,5.19
2019-02-16T12:01:51.446Z,5.24
2019-02-16T12:04:02.096Z,5.29
2019-02-16T12:06:10.096Z,5.10
2019-02-16T12:08:18.985Z,4.92
2019-02-16T12:10:30.328Z,4.98
2019-02-16T12:12:56.113Z,4.91
2019-02-16T12:15:13.075Z,4.87
2019-02-16T12:17:19.006Z,4.86
2019-02-16T12:19:36.054Z,4.74
2019-02-16T12:21:46.734Z,4.84
2019-02-16T12:23:54.621Z,4.72
2019-02-16T12:26:08.473Z,4.82
2019-02-16T12:28:16.352Z,4.86
2019-02-16T12:30:36.205Z,5.04
2019-02-16T12:32:53.103Z,5.03
2019-02-16T12:35:13.047Z,5.02
2019-02-16T12:37:26.409Z,5.04
2019-02-16T12:39:34.287Z,5.15
2019-02-16T12:41:44.959Z,5.19
2019-02-16T12:43:50.951Z,5.24
2019-02-16T12:45:58.829Z,5.32
2019-02-16T12:48:06.649Z,5.35
2019-02-16T12:50:20.296Z,5.34
2019-02-16T12:52:28.945Z,5.42
2019-02-16T12:54:54.999Z,5.50
2019-02-16T12:57:02.871Z,5.53
2019-02-16T12:59:10.738Z,5.41
2019-02-16T13:01:33.698Z,5.28
2019-02-16T13:03:44.175Z,5.13
2019-02-16T13:06:08.765Z,5.25
2019-02-16T13:08:55.149Z,5.38
2019-02-16T13:11:08.947Z,5.54
2019-02-16T13:13:33.029Z,5.63
2019-02-16T13:15:40.975Z,5.69
2019-02-16T13:17:48.840Z,5.72
2019-02-16T13:19:54.875Z,5.78
2019-02-16T13:22:02.803Z,5.81
2019-02-16T13:24:22.946Z,5.75
2019-02-16T13:26:46.703Z,5.70
2019-02-16T13:29:06.456Z,5.65
2019-02-16T13:31:16.930Z,5.45
2019-02-16T13:33:30.640Z,5.25
2019-02-16T13:35:47.254Z,5.09
2019-02-16T13:38:11.122Z,5.06
2019-02-16T13:40:17.062Z,4.97
2019-02-16T13:42:28.809Z,4.97
2019-02-16T13:44:36.607Z,4.87
2019-02-16T13:46:44.424Z,4.80
2019-02-16T13:48:55.334Z,4.75
2019-02-16T13:51:08.915Z,4.78
2019-02-16T13:53:16.785Z,4.72
2019-02-16T13:55:33.176Z,4.73
2019-02-16T13:57:36.925Z,4.72
2019-02-16T13:59:44.744Z,4.68
2019-02-16T14:01:50.714Z,4.59
2019-02-16T14:04:01.435Z,4.53
2019-02-16T14:06:09.383Z,4.48
2019-02-16T14:08:17.346Z,4.45
2019-02-16T14:10:28.118Z,4.42
2019-02-16T14:12:38.989Z,4.36
2019-02-16T14:14:46.813Z,4.39
2019-02-16T14:16:54.686Z,4.40
2019-02-16T14:19:00.986Z,4.37
2019-02-16T14:21:07.329Z,4.37
2019-02-16T14:23:14.139Z,4.36
2019-02-16T14:25:21.934Z,4.35
2019-02-16T14:27:28.324Z,4.33
2019-02-16T14:29:34.526Z,4.33
2019-02-16T14:31:40.870Z,4.34
2019-02-16T14:33:47.128Z,4.34
2019-02-16T14:35:53.791Z,4.30
2019-02-16T14:38:11.063Z,4.26
2019-02-16T14:40:17.309Z,4.25
2019-02-16T14:42:23.528Z,4.27
2019-02-16T14:44:29.687Z,4.27
2019-02-16T14:46:36.165Z,4.26
2019-02-16T14:48:42.387Z,4.26
2019-02-16T14:50:48.761Z,4.24
2019-02-16T14:52:55.186Z,4.21
2019-02-16T14:55:01.531Z,4.16
2019-02-16T14:57:07.832Z,4.16
2019-02-16T14:59:14.161Z,4.15
2019-02-16T15:01:20.395Z,4.14
2019-02-16T15:03:26.553Z,4.11
2019-02-16T15:05:32.880Z,4.12
2019-02-16T15:07:39.284Z,4.10
2019-02-16T15:09:45.571Z,4.06
2019-02-16T15:11:51.963Z,4.00
2019-02-16T15:13:58.339Z,3.98
2019-02-16T15:16:04.668Z,3.93
2019-02-16T15:18:10.885Z,3.90
2019-02-16T15:20:17.955Z,3.86
2019-02-16T15:22:24.199Z,3.83
2019-02-16T15:24:32.005Z,3.77
2019-02-16T15:26:39.344Z,3.72
2019-02-16T15:28:45.594Z,3.69
2019-02-16T15:30:51.846Z,3.63
2019-02-16T15:32:59.302Z,3.56
2019-02-16T15:35:06.930Z,3.48
2019-02-16T15:37:15.122Z,3.43
2019-02-16T15:39:22.532Z,3.38
2019-02-16T15:41:28.769Z,3.30
2019-02-16T15:43:35.169Z,3.22
2019-02-16T15:45:41.429Z,3.14
2019-02-16T15:47:47.743Z,3.06
2019-02-16T15:49:54.012Z,2.97
2019-02-16T15:52:00.377Z,2.89
2019-02-16T15:54:06.677Z,2.82
2019-02-16T15:56:13.021Z,2.74
2019-02-16T15:58:19.375Z,2.66
2019-02-16T16:00:29.013Z,2.60
2019-02-16T16:02:35.719Z,2.52
2019-02-16T16:04:42.117Z,2.47
2019-02-16T16:06:48.491Z,2.43
2019-02-16T16:09:02.366Z,2.33
2019-02-16T16:11:15.959Z,2.31
2019-02-16T16:13:22.065Z,2.28
2019-02-16T16:15:41.998Z,2.24
2019-02-16T16:18:04.544Z,2.21
2019-02-16T16:20:15.054Z,2.16
2019-02-16T16:22:22.941Z,2.13
2019-02-16T16:24:28.931Z,2.09
2019-02-16T16:26:43.068Z,2.04
2019-02-16T16:29:00.175Z,1.96
2019-02-16T16:31:03.297Z,1.95
2019-02-16T16:33:29.579Z,1.92
2019-02-16T16:35:36.770Z,1.90
2019-02-16T16:37:59.173Z,1.87
2019-02-16T16:40:17.852Z,1.86
2019-02-16T16:42:23.871Z,1.84
2019-02-16T16:44:34.700Z,1.82
2019-02-16T16:46:51.795Z,1.79
2019-02-16T16:49:19.936Z,1.78
2019-02-16T16:51:33.888Z,1.76
2019-02-16T16:53:44.699Z,1.73
2019-02-16T16:55:55.369Z,1.69
2019-02-16T16:58:04.108Z,1.69
2019-02-16T17:00:26.675Z,1.68
2019-02-16T17:02:50.543Z,1.67
2019-02-16T17:05:10.089Z,1.67
2019-02-16T17:07:21.006Z,1.67
2019-02-16T17:09:29.748Z,1.64
2019-02-16T17:11:53.738Z,1.66
2019-02-16T17:14:01.811Z,1.63
2019-02-16T17:16:07.939Z,1.60
2019-02-16T17:18:19.650Z,1.58
2019-02-16T17:20:36.802Z,1.59
2019-02-16T17:22:47.530Z,1.59
2019-02-16T17:25:01.744Z,1.59
2019-02-16T17:27:13.825Z,1.58
2019-02-16T17:29:37.886Z,1.61
2019-02-16T17:31:48.919Z,1.60
2019-02-16T17:34:12.712Z,1.59
2019-02-16T17:36:37.720Z,1.62
2019-02-16T17:38:57.520Z,1.60
2019-02-16T17:41:24.603Z,1.59
2019-02-16T17:43:35.295Z,1.58
2019-02-16T17:45:47.319Z,1.58
2019-02-16T17:48:04.030Z,1.56
2019-02-16T17:50:12.230Z,1.54
2019-02-16T17:52:38.549Z,1.54
2019-02-16T17:54:46.593Z,1.53
2019-02-16T17:57:12.660Z,1.51
2019-02-16T17:59:20.597Z,1.50
2019-02-16T18:01:31.348Z,1.50
2019-02-16T18:03:39.179Z,1.50
2019-02-16T18:05:49.524Z,1.50
2019-02-16T18:08:00.569Z,1.49
2019-02-16T18:10:08.799Z,1.46
2019-02-16T18:12:32.925Z,1.42
2019-02-16T18:14:42.339Z,1.42
2019-02-16T18:17:06.266Z,1.40
2019-02-16T18:19:14.215Z,1.38
2019-02-16T18:21:24.781Z,1.38
2019-02-16T18:23:40.106Z,1.36
2019-02-16T18:25:55.377Z,1.33
2019-02-16T18:28:06.028Z,1.31
2019-02-16T18:30:18.598Z,1.31
2019-02-16T18:32:31.401Z,1.29
2019-02-16T18:34:39.152Z,1.28
2019-02-16T18:36:55.935Z,1.25
2019-02-16T18:39:20.862Z,1.23
2019-02-16T18:41:38.828Z,1.20
2019-02-16T18:44:03.241Z,1.18
2019-02-16T18:46:12.691Z,1.17
2019-02-16T18:48:20.644Z,1.15
2019-02-16T18:50:43.551Z,1.14
2019-02-16T18:52:54.444Z,1.08
2019-02-16T18:55:11.092Z,1.06
2019-02-16T18:57:21.016Z,1.06
2019-02-16T18:59:32.894Z,1.08
2019-02-16T19:01:38.908Z,1.13
2019-02-16T19:03:51.100Z,1.12
2019-02-16T19:06:01.642Z,1.12
2019-02-16T19:08:16.469Z,1.13
2019-02-16T19:10:32.965Z,1.16
2019-02-16T19:12:43.872Z,1.15
2019-02-16T19:15:00.639Z,1.13
2019-02-16T19:17:08.477Z,1.13
2019-02-16T19:19:26.812Z,1.09
2019-02-16T19:21:40.521Z,1.07
2019-02-16T19:24:03.115Z,1.06
2019-02-16T19:26:14.562Z,1.08
2019-02-16T19:28:26.762Z,1.09
2019-02-16T19:30:34.735Z,1.11
2019-02-16T19:32:45.241Z,1.11
2019-02-16T19:35:00.368Z,1.11
2019-02-16T19:37:23.745Z,1.10
2019-02-16T19:39:35.689Z,1.11
2019-02-16T19:41:52.438Z,1.11
2019-02-16T19:44:00.341Z,1.11
2019-02-16T19:46:06.409Z,1.08
2019-02-16T19:48:17.013Z,1.03
2019-02-16T19:50:24.980Z,1.01
2019-02-16T19:52:40.377Z,1.01
2019-02-16T19:54:54.372Z,1.01
2019-02-16T19:57:06.166Z,0.99
2019-02-16T19:59:14.116Z,0.97
2019-02-16T20:01:22.144Z,0.95
2019-02-16T20:03:32.501Z,0.93
2019-02-16T20:05:45.228Z,0.91
2019-02-16T20:07:53.105Z,0.88
2019-02-16T20:10:13.931Z,0.82
2019-02-16T20:12:24.457Z,0.80
2019-02-16T20:14:32.400Z,0.79
2019-02-16T20:16:56.448Z,0.78
2019-02-16T20:19:13.078Z,0.79
2019-02-16T20:21:22.572Z,0.82
2019-02-16T20:23:41.199Z,0.80
2019-02-16T20:25:51.828Z,0.75
2019-02-16T20:28:15.962Z,0.66
2019-02-16T20:30:28.078Z,0.61
2019-02-16T20:32:49.015Z,0.60
2019-02-16T20:34:56.640Z,0.58
2019-02-16T20:37:08.918Z,0.57
2019-02-16T20:39:26.681Z,0.56
2019-02-16T20:41:39.196Z,0.51
2019-02-16T20:44:03.449Z,0.47
2019-02-16T20:46:11.389Z,0.46
2019-02-16T20:48:29.267Z,0.45
2019-02-16T20:50:53.331Z,0.44
2019-02-16T20:53:21.264Z,0.42
2019-02-16T20:55:31.004Z,0.39
2019-02-16T20:57:47.778Z,0.38
2019-02-16T20:59:52.608Z,0.39
2019-02-16T21:02:05.120Z,0.38
2019-02-16T21:04:27.999Z,0.41
2019-02-16T21:06:50.563Z,0.41
2019-02-16T21:09:14.492Z,0.45
2019-02-16T21:11:38.265Z,0.49
2019-02-16T21:13:50.541Z,0.49
2019-02-16T21:16:01.274Z,0.49
2019-02-16T21:18:13.265Z,0.52
2019-02-16T21:20:37.056Z,0.52
2019-02-16T21:23:01.978Z,0.54
2019-02-16T21:25:26.126Z,0.59
2019-02-16T21:27:35.340Z,0.67
2019-02-16T21:29:51.532Z,0.70
2019-02-16T21:31:59.375Z,0.79
2019-02-16T21:34:19.206Z,0.83
2019-02-16T21:36:26.377Z,0.86
2019-02-16T21:38:39.193Z,0.88
2019-02-16T21:40:51.246Z,0.93
2019-02-16T21:43:08.172Z,0.95
2019-02-16T21:45:31.162Z,0.91
2019-02-16T21:47:55.334Z,0.91
2019-02-16T21:50:03.882Z,0.87
2019-02-16T21:52:12.978Z,0.82
2019-02-16T21:54:21.511Z,0.79
2019-02-16T21:56:30.678Z,0.77
2019-02-16T21:58:47.288Z,0.73
2019-02-16T22:00:56.641Z,0.68
2019-02-16T22:03:10.626Z,0.65
2019-02-16T22:05:16.744Z,0.63
2019-02-16T22:07:27.804Z,0.58
2019-02-16T22:09:33.898Z,0.53
2019-02-16T22:11:44.686Z,0.46
2019-02-16T22:13:51.066Z,0.43
2019-02-16T22:15:57.426Z,0.39
2019-02-16T22:18:03.769Z,0.36
2019-02-16T22:20:11.871Z,0.32
2019-02-16T22:22:20.709Z,0.28
2019-02-16T22:24:28.314Z,0.29
2019-02-16T22:26:34.676Z,0.27
2019-02-16T22:28:40.914Z,0.26
2019-02-16T22:30:47.317Z,0.25
2019-02-16T22:32:54.576Z,0.24
2019-02-16T22:35:02.499Z,0.22
2019-02-16T22:37:09.059Z,0.23
2019-02-16T22:39:16.861Z,0.23
2019-02-16T22:41:24.795Z,0.22
2019-02-16T22:43:31.155Z,0.20
2019-02-16T22:45:37.544Z,0.19
2019-02-16T22:47:43.841Z,0.18
2019-02-16T22:49:50.153Z,0.19
2019-02-16T22:51:58.149Z,0.19
2019-02-16T22:54:04.364Z,0.20
2019-02-16T22:56:10.795Z,0.22
2019-02-16T22:58:28.255Z,0.26
2019-02-16T23:00:27.674Z,0.37
2019-02-16T23:02:35.468Z,0.44
2019-02-16T23:04:41.682Z,0.49
2019-02-16T23:06:47.853Z,0.55
2019-02-16T23:08:54.107Z,0.77
2019-02-16T23:11:00.287Z,0.86
2019-02-16T23:13:07.594Z,0.90
2019-02-16T23:15:14.052Z,0.92
2019-02-16T23:17:20.441Z,0.94
2019-02-16T23:19:26.801Z,0.99
2019-02-16T23:21:33.044Z,1.06
2019-02-16T23:23:39.203Z,1.07
2019-02-16T23:25:45.679Z,1.04
2019-02-16T23:27:52.051Z,0.96
2019-02-16T23:29:58.287Z,0.86
2019-02-16T23:32:04.553Z,0.79
2019-02-16T23:34:10.804Z,0.70
2019-02-16T23:36:50.538Z,0.65
2019-02-16T23:38:57.035Z,0.60
2019-02-16T23:41:03.477Z,0.52
2019-02-16T23:43:09.788Z,0.46
2019-02-16T23:45:16.190Z,0.43
2019-02-16T23:47:22.540Z,0.38
2019-02-16T23:49:28.701Z,0.34
2019-02-16T23:51:35.080Z,0.29
2019-02-16T23:53:41.268Z,0.26
2019-02-16T23:55:47.505Z,0.27
2019-02-16T23:57:53.878Z,0.25
